Time;durP1;ratioP1;P1;durP2;ratioP2;P2;SDS_P1;SDS_P2;PMS_P1;PMS_P2;Temp;Humidity;BMP_temperature;BMP_pressure;BME280_temperature;BME280_humidity;BME280_pressure;Samples;Min_cycle;Max_cycle;Signal;HPM_P1;HPM_P2
2022/07/16 00:02:21;;;;;;;;;;;;;;;;;;5098260;28;20412;-77
2022/07/16 00:04:47;;;;;;;;;;;;;;;;;;5106153;28;20007;-77
2022/07/16 00:07:15;;;;;;;;;;;;;;;;;;5101192;28;20294;-77
2022/07/16 00:09:42;;;;;;;;;;;;;;;;;;5118685;22;20453;-76
2022/07/16 00:12:08;;;;;;;;;;;;;;;;;;5116885;28;19955;-76
2022/07/16 00:14:35;;;;;;;;;;;;;;;;;;5116346;28;19967;-76
2022/07/16 00:17:01;;;;;;;;;;;;;;;;;;5115949;28;20390;-75
2022/07/16 00:19:27;;;;;;;;;;;;;;;;;;5116171;28;20030;-76
2022/07/16 00:21:55;;;;;;;;;;;;;;;;;;5116326;28;20031;-76
2022/07/16 00:24:23;;;;;;;;;;;;;;;;;;5116132;28;20302;-76
2022/07/16 00:26:49;;;;;;;;;;;;;;;;;;5115833;28;20359;-76
2022/07/16 00:29:18;;;;;;;;;;;;;;;;;;5116054;28;20026;-76
2022/07/16 00:31:45;;;;;;;;;;;;;;;;;;5115925;28;19930;-75
2022/07/16 00:34:11;;;;;;;;;;;;;;;;;;5116286;28;19971;-76
2022/07/16 00:36:39;;;;;;;;;;;;;;;;;;5115889;28;19924;-77
2022/07/16 00:39:06;;;;;;;;;;;;;;;;;;5115848;28;20435;-77
2022/07/16 00:41:34;;;;;;;;;;;;;;;;;;5115710;28;19970;-77
2022/07/16 00:44:01;;;;;;;;;;;;;;;;;;5116160;28;20341;-77
2022/07/16 00:46:29;;;;;;;;;;;;;;;;;;5115236;28;19981;-77
2022/07/16 00:48:56;;;;;;;;;;;;;;;;;;5115840;28;19951;-77
2022/07/16 00:51:23;;;;;;;;;;;;;;;;;;5115768;28;20011;-77
2022/07/16 00:53:50;;;;;;;;;;;;;;;;;;5115436;28;20358;-76
2022/07/16 00:56:17;;;;;;;;;;;;;;;;;;5115357;28;19967;-76
2022/07/16 00:58:45;;;;;;;;;;;;;;;;;;5115546;28;19946;-77
2022/07/16 01:01:13;;;;;;;;;;;;;;;;;;5115594;28;20007;-77
2022/07/16 01:03:40;;;;;;;;;;;;;;;;;;5115763;28;19967;-77
2022/07/16 01:06:07;;;;;;;;;;;;;;;;;;5115553;28;20298;-76
2022/07/16 01:08:34;;;;;;;;;;;;;;;;;;5115635;28;20054;-77
2022/07/16 01:11:01;;;;;;;;;;;;;;;;;;5115155;28;20543;-77
2022/07/16 01:13:28;;;;;;;;;;;;;;;;;;5114967;28;19982;-77
2022/07/16 01:15:55;;;;;;;;;;;;;;;;;;5115054;28;19928;-77
2022/07/16 01:18:22;;;;;;;;;;;;;;;;;;5115126;28;19924;-77
2022/07/16 01:20:48;;;;;;;;;;;;;;;;;;5114925;28;19971;-77
2022/07/16 01:23:18;;;;;;;;;;;;;;;;;;5115064;28;19924;-77
2022/07/16 01:25:45;;;;;;;;;;;;;;;;;;5115227;28;19974;-77
2022/07/16 01:28:11;;;;;;;;;;;;;;;;;;5114875;28;20035;-77
2022/07/16 01:30:38;;;;;;;;;;;;;;;;;;5114822;28;20290;-77
2022/07/16 01:33:18;;;;;;;;;;;;;;;;;;5114906;28;20028;-77
2022/07/16 01:35:44;;;;;;;;;;;;;;;;;;5114817;28;20010;-77
2022/07/16 01:38:11;;;;;;;;;;;;;;;;;;5114361;28;19977;-77
2022/07/16 01:40:39;;;;;;;;;;;;;;;;;;5114653;28;19978;-76
2022/07/16 01:43:12;;;;;;;;;;;;;;;;;;5114872;28;20011;-76
2022/07/16 01:45:39;;;;;;;;;;;;;;;;;;5114820;28;20010;-77
2022/07/16 01:48:05;;;;;;;;;;;;;;;;;;5114467;28;20028;-77
2022/07/16 01:50:32;;;;;;;;;;;;;;;;;;5114407;28;20409;-77
2022/07/16 01:52:58;;;;;;;;;;;;;;;;;;5114277;28;20361;-76
2022/07/16 01:55:25;;;;;;;;;;;;;;;;;;5114320;28;20361;-76
2022/07/16 01:57:53;;;;;;;;;;;;;;;;;;5114215;28;19923;-76
2022/07/16 02:00:19;;;;;;;;;;;;;;;;;;5114537;28;19967;-76
2022/07/16 02:02:46;;;;;;;;;;;;;;;;;;5114299;28;20297;-76
2022/07/16 02:05:13;;;;;;;;;;;;;;;;;;5114821;28;19963;-77
2022/07/16 02:07:39;;;;;;;;;;;;;;;;;;5113872;28;20014;-76
2022/07/16 02:10:06;;;;;;;;;;;;;;;;;;5114229;28;19970;-76
2022/07/16 02:12:32;;;;;;;;;;;;;;;;;;5113679;28;19984;-76
2022/07/16 02:15:00;;;;;;;;;;;;;;;;;;5114226;28;20011;-76
2022/07/16 02:17:27;;;;;;;;;;;;;;;;;;5113748;28;19923;-76
2022/07/16 02:19:53;;;;;;;;;;;;;;;;;;5113843;28;20440;-76
2022/07/16 02:22:20;;;;;;;;;;;;;;;;;;5113983;28;19963;-76
2022/07/16 02:24:46;;;;;;;;;;;;;;;;;;5113906;28;19963;-76
2022/07/16 02:27:13;;;;;;;;;;;;;;;;;;5113651;28;19959;-76
2022/07/16 02:29:39;;;;;;;;;;;;;;;;;;5113990;28;19924;-76
2022/07/16 02:32:07;;;;;;;;;;;;;;;;;;5113587;28;19923;-77
2022/07/16 02:34:33;;;;;;;;;;;;;;;;;;5113869;28;19971;-76
2022/07/16 02:37:00;;;;;;;;;;;;;;;;;;5113129;28;19955;-76
2022/07/16 02:39:26;;;;;;;;;;;;;;;;;;5113694;28;19928;-76
2022/07/16 02:41:53;;;;;;;;;;;;;;;;;;5113828;28;19974;-76
2022/07/16 02:44:19;;;;;;;;;;;;;;;;;;5113699;28;20010;-77
2022/07/16 02:46:46;;;;;;;;;;;;;;;;;;5113507;28;19927;-76
2022/07/16 02:49:14;;;;;;;;;;;;;;;;;;5113544;28;20007;-76
2022/07/16 02:51:40;;;;;;;;;;;;;;;;;;5113135;28;20336;-76
2022/07/16 02:54:06;;;;;;;;;;;;;;;;;;5113283;28;19923;-77
2022/07/16 02:56:33;;;;;;;;;;;;;;;;;;5113245;28;20015;-76
2022/07/16 02:58:59;;;;;;;;;;;;;;;;;;5113167;28;19963;-76
2022/07/16 03:01:26;;;;;;;;;;;;;;;;;;5093906;28;19924;-76
2022/07/16 03:03:52;;;;;;;;;;;;;;;;;;5092768;28;20446;-76
2022/07/16 03:06:20;;;;;;;;;;;;;;;;;;5092479;28;20294;-76
2022/07/16 03:08:47;;;;;;;;;;;;;;;;;;5092620;28;20014;-76
2022/07/16 03:11:13;;;;;;;;;;;;;;;;;;5092947;28;19982;-76
2022/07/16 03:13:40;;;;;;;;;;;;;;;;;;5093061;28;19978;-76
2022/07/16 03:16:06;;;;;;;;;;;;;;;;;;5092609;28;20336;-76
2022/07/16 03:18:33;;;;;;;;;;;;;;;;;;5094514;28;19964;-76
2022/07/16 03:20:59;;;;;;;;;;;;;;;;;;5100164;28;19924;-76
2022/07/16 03:23:27;;;;;;;;;;;;;;;;;;5099968;28;19924;-76
2022/07/16 03:25:54;;;;;;;;;;;;;;;;;;5099609;28;19988;-76
2022/07/16 03:28:20;;;;;;;;;;;;;;;;;;5098245;28;19978;-76
2022/07/16 03:30:46;;;;;;;;;;;;;;;;;;5097758;28;19951;-76
2022/07/16 03:33:13;;;;;;;;;;;;;;;;;;5097700;28;20712;-76
2022/07/16 03:35:39;;;;;;;;;;;;;;;;;;5096373;28;19972;-75
2022/07/16 03:40:51;;;;;;;;;;;;;;;;;;5094437;28;20412;-76
2022/07/16 03:43:17;;;;;;;;;;;;;;;;;;5092676;28;19963;-76
2022/07/16 03:45:44;;;;;;;;;;;;;;;;;;5093364;28;20394;-76
2022/07/16 03:48:10;;;;;;;;;;;;;;;;;;5091947;28;19999;-76
2022/07/16 03:50:37;;;;;;;;;;;;;;;;;;5092420;28;19971;-76
2022/07/16 03:53:03;;;;;;;;;;;;;;;;;;5092370;28;20002;-76
2022/07/16 03:55:30;;;;;;;;;;;;;;;;;;5092083;28;19963;-76
2022/07/16 03:57:57;;;;;;;;;;;;;;;;;;5091646;28;20019;-76
2022/07/16 04:00:24;;;;;;;;;;;;;;;;;;5102548;28;19967;-76
2022/07/16 04:02:50;;;;;;;;;;;;;;;;;;5112315;28;19978;-76
2022/07/16 04:05:17;;;;;;;;;;;;;;;;;;5112248;28;20425;-76
2022/07/16 04:07:43;;;;;;;;;;;;;;;;;;5112016;28;20421;-76
2022/07/16 04:10:10;;;;;;;;;;;;;;;;;;5112132;28;19993;-76
2022/07/16 04:12:36;;;;;;;;;;;;;;;;;;5112520;28;19971;-75
2022/07/16 04:15:04;;;;;;;;;;;;;;;;;;5112346;28;19975;-76
2022/07/16 04:17:31;;;;;;;;;;;;;;;;;;5113056;28;20388;-75
2022/07/16 04:19:58;;;;;;;;;;;;;;;;;;5113126;28;20376;-75
2022/07/16 04:22:24;;;;;;;;;;;;;;;;;;5112885;28;19984;-76
2022/07/16 04:24:51;;;;;;;;;;;;;;;;;;5112235;28;19924;-76
2022/07/16 04:27:17;;;;;;;;;;;;;;;;;;5111888;28;19963;-76
2022/07/16 04:29:44;;;;;;;;;;;;;;;;;;5111914;28;19966;-76
2022/07/16 04:32:12;;;;;;;;;;;;;;;;;;5112452;28;19967;-76
2022/07/16 04:34:38;;;;;;;;;;;;;;;;;;5112128;28;20034;-76
2022/07/16 04:37:05;;;;;;;;;;;;;;;;;;5115048;28;20019;-76
2022/07/16 04:39:31;;;;;;;;;;;;;;;;;;5115796;28;19959;-76
2022/07/16 04:41:57;;;;;;;;;;;;;;;;;;5116043;28;19963;-75
2022/07/16 04:44:24;;;;;;;;;;;;;;;;;;5116144;28;20015;-75
2022/07/16 04:46:50;;;;;;;;;;;;;;;;;;5116045;28;19924;-76
2022/07/16 04:49:18;;;;;;;;;;;;;;;;;;5115555;28;20357;-76
2022/07/16 04:51:45;;;;;;;;;;;;;;;;;;5115718;28;20014;-76
2022/07/16 04:54:11;;;;;;;;;;;;;;;;;;5115565;28;19969;-76
2022/07/16 04:56:38;;;;;;;;;;;;;;;;;;5115539;28;19924;-76
2022/07/16 04:59:04;;;;;;;;;;;;;;;;;;5115565;28;19963;-76
2022/07/16 05:01:30;;;;;;;;;;;;;;;;;;5095939;28;19959;-75
2022/07/16 05:03:57;;;;;;;;;;;;;;;;;;5095061;28;19971;-75
2022/07/16 05:06:25;;;;;;;;;;;;;;;;;;5094988;28;19924;-75
2022/07/16 05:08:52;;;;;;;;;;;;;;;;;;5094655;28;19989;-75
2022/07/16 05:11:18;;;;;;;;;;;;;;;;;;5095054;28;19963;-75
2022/07/16 05:13:45;;;;;;;;;;;;;;;;;;5095187;28;19971;-75
2022/07/16 05:16:11;;;;;;;;;;;;;;;;;;5094788;28;20012;-75
2022/07/16 05:18:38;;;;;;;;;;;;;;;;;;5094739;28;19960;-75
2022/07/16 05:21:04;;;;;;;;;;;;;;;;;;5095024;28;20319;-75
2022/07/16 05:23:32;;;;;;;;;;;;;;;;;;5094848;28;20014;-76
2022/07/16 05:25:58;;;;;;;;;;;;;;;;;;5094323;28;20007;-76
2022/07/16 05:28:25;;;;;;;;;;;;;;;;;;5094539;28;20008;-75
2022/07/16 05:30:51;;;;;;;;;;;;;;;;;;5094470;28;20425;-75
2022/07/16 05:33:18;;;;;;;;;;;;;;;;;;5094621;28;19977;-76
2022/07/16 05:35:44;;;;;;;;;;;;;;;;;;5094170;28;19924;-76
2022/07/16 05:38:11;;;;;;;;;;;;;;;;;;5094323;28;19938;-76
2022/07/16 05:40:39;;;;;;;;;;;;;;;;;;5094195;28;20383;-76
2022/07/16 05:43:06;;;;;;;;;;;;;;;;;;5094288;28;19972;-76
2022/07/16 05:45:32;;;;;;;;;;;;;;;;;;5094365;28;19924;-76
2022/07/16 05:47:59;;;;;;;;;;;;;;;;;;5095312;28;20378;-76
2022/07/16 05:50:25;;;;;;;;;;;;;;;;;;5093965;28;20002;-76
2022/07/16 05:52:52;;;;;;;;;;;;;;;;;;5093852;28;20626;-77
2022/07/16 05:55:18;;;;;;;;;;;;;;;;;;5094171;28;19971;-76
2022/07/16 05:57:46;;;;;;;;;;;;;;;;;;5093830;28;20014;-76
2022/07/16 06:00:13;;;;;;;;;;;;;;;;;;5102326;28;20386;-76
2022/07/16 06:02:39;;;;;;;;;;;;;;;;;;5114597;28;20006;-76
2022/07/16 06:05:06;;;;;;;;;;;;;;;;;;5113962;28;19930;-76
2022/07/16 06:07:33;;;;;;;;;;;;;;;;;;5113829;28;19963;-76
2022/07/16 06:10:00;;;;;;;;;;;;;;;;;;5113926;28;19957;-76
2022/07/16 06:12:26;;;;;;;;;;;;;;;;;;5114319;28;19974;-76
2022/07/16 06:14:54;;;;;;;;;;;;;;;;;;5114111;28;20011;-76
2022/07/16 06:17:21;;;;;;;;;;;;;;;;;;5113662;28;19975;-76
2022/07/16 06:19:47;;;;;;;;;;;;;;;;;;5113542;28;20283;-76
2022/07/16 06:22:14;;;;;;;;;;;;;;;;;;5114154;28;20019;-76
2022/07/16 06:24:40;;;;;;;;;;;;;;;;;;5113832;28;19967;-76
2022/07/16 06:27:07;;;;;;;;;;;;;;;;;;5114060;28;19967;-76
2022/07/16 06:29:33;;;;;;;;;;;;;;;;;;5122446;28;19966;-76
2022/07/16 06:32:01;;;;;;;;;;;;;;;;;;5113781;28;19928;-76
2022/07/16 06:34:28;;;;;;;;;;;;;;;;;;5113779;28;20573;-76
2022/07/16 06:36:54;;;;;;;;;;;;;;;;;;5113615;28;19924;-76
2022/07/16 06:39:21;;;;;;;;;;;;;;;;;;5113613;28;19965;-76
2022/07/16 06:41:47;;;;;;;;;;;;;;;;;;5113916;28;19966;-76
2022/07/16 06:44:14;;;;;;;;;;;;;;;;;;5113899;28;19967;-76
2022/07/16 06:46:40;;;;;;;;;;;;;;;;;;5113028;28;20006;-76
2022/07/16 06:49:08;;;;;;;;;;;;;;;;;;5113766;28;20353;-76
2022/07/16 06:51:34;;;;;;;;;;;;;;;;;;5113871;28;20014;-76
2022/07/16 06:54:01;;;;;;;;;;;;;;;;;;5113423;28;19969;-76
2022/07/16 06:56:27;;;;;;;;;;;;;;;;;;5113023;28;20022;-76
2022/07/16 06:58:54;;;;;;;;;;;;;;;;;;5130261;22;20389;-78
2022/07/16 07:01:20;;;;;;;;;;;;;;;;;;5114155;27;19927;-77
2022/07/16 07:03:47;;;;;;;;;;;;;;;;;;5114241;28;19970;-79
2022/07/16 07:06:14;;;;;;;;;;;;;;;;;;5119266;28;19982;-78
2022/07/16 07:08:41;;;;;;;;;;;;;;;;;;5116285;28;19978;-77
2022/07/16 07:11:08;;;;;;;;;;;;;;;;;;5120594;28;20327;-77
2022/07/16 07:13:34;;;;;;;;;;;;;;;;;;5118875;28;19963;-78
2022/07/16 07:16:01;;;;;;;;;;;;;;;;;;5118740;28;20262;-78
2022/07/16 07:18:27;;;;;;;;;;;;;;;;;;5118726;28;19928;-78
2022/07/16 07:20:54;;;;;;;;;;;;;;;;;;5117250;28;19966;-79
2022/07/16 07:23:22;;;;;;;;;;;;;;;;;;5117259;28;19972;-77
2022/07/16 07:25:48;;;;;;;;;;;;;;;;;;5116420;28;19966;-77
2022/07/16 07:28:15;;;;;;;;;;;;;;;;;;5116077;28;19966;-77
2022/07/16 07:30:41;;;;;;;;;;;;;;;;;;5116324;28;19923;-80
2022/07/16 07:33:08;;;;;;;;;;;;;;;;;;5116915;28;19967;-78
2022/07/16 07:35:34;;;;;;;;;;;;;;;;;;5115711;28;19928;-76
2022/07/16 07:38:01;;;;;;;;;;;;;;;;;;5117008;28;19924;-77
2022/07/16 07:40:29;;;;;;;;;;;;;;;;;;5117087;28;19999;-76
2022/07/16 07:42:55;;;;;;;;;;;;;;;;;;5112700;28;19967;-75
2022/07/16 07:45:22;;;;;;;;;;;;;;;;;;5112870;28;20006;-77
2022/07/16 07:47:49;;;;;;;;;;;;;;;;;;5113047;28;19963;-78
2022/07/16 07:50:15;;;;;;;;;;;;;;;;;;5112678;28;20394;-77
2022/07/16 07:52:41;;;;;;;;;;;;;;;;;;5112576;28;20022;-77
2022/07/16 07:55:08;;;;;;;;;;;;;;;;;;5113112;28;20429;-77
2022/07/16 07:57:36;;;;;;;;;;;;;;;;;;5114506;28;19923;-77
2022/07/16 08:00:04;;;;;;;;;;;;;;;;;;5114958;28;19923;-77
2022/07/16 08:02:30;;;;;;;;;;;;;;;;;;5118451;28;19927;-77
2022/07/16 08:04:57;;;;;;;;;;;;;;;;;;5117434;28;19924;-77
2022/07/16 08:07:23;;;;;;;;;;;;;;;;;;5114911;28;20331;-79
2022/07/16 08:09:50;;;;;;;;;;;;;;;;;;5113803;28;19973;-78
2022/07/16 08:12:17;;;;;;;;;;;;;;;;;;5118973;28;19928;-79
2022/07/16 08:14:45;;;;;;;;;;;;;;;;;;5117148;28;20279;-76
2022/07/16 08:17:11;;;;;;;;;;;;;;;;;;5116760;28;20328;-78
2022/07/16 08:19:38;;;;;;;;;;;;;;;;;;5116812;28;20038;-78
2022/07/16 08:22:04;;;;;;;;;;;;;;;;;;5116953;28;20018;-78
2022/07/16 08:27:15;;;;;;;;;;;;;;;;;;5123126;28;19930;-78
2022/07/16 08:29:43;;;;;;;;;;;;;;;;;;5132528;28;19934;-78
2022/07/16 08:32:11;;;;;;;;;;;;;;;;;;5132002;28;19923;-77
2022/07/16 08:34:37;;;;;;;;;;;;;;;;;;5128291;28;19928;-76
2022/07/16 08:37:08;;;;;;;;;;;;;;;;;;5130330;28;19963;-76
2022/07/16 08:39:38;;;;;;;;;;;;;;;;;;5130532;28;19934;-78
2022/07/16 08:42:04;;;;;;;;;;;;;;;;;;5132690;28;19931;-77
2022/07/16 08:44:31;;;;;;;;;;;;;;;;;;5128498;28;19989;-77
2022/07/16 08:46:58;;;;;;;;;;;;;;;;;;5130153;28;19928;-76
2022/07/16 08:49:26;;;;;;;;;;;;;;;;;;5134921;28;19924;-74
2022/07/16 08:51:56;;;;;;;;;;;;;;;;;;5134769;28;19997;-78
2022/07/16 08:54:22;;;;;;;;;;;;;;;;;;5130368;28;19924;-77
2022/07/16 08:56:50;;;;;;;;;;;;;;;;;;5117511;28;20404;-78
2022/07/16 08:59:16;;;;;;;;;;;;;;;;;;5117136;28;19930;-79
2022/07/16 09:01:43;;;;;;;;;;;;;;;;;;5118124;28;19970;-76
2022/07/16 09:04:09;;;;;;;;;;;;;;;;;;5122740;28;19959;-77
2022/07/16 09:06:37;;;;;;;;;;;;;;;;;;5122838;27;20360;-79
2022/07/16 09:09:04;;;;;;;;;;;;;;;;;;5122399;28;19985;-79
2022/07/16 09:11:32;;;;;;;;;;;;;;;;;;5136442;27;19924;-79
2022/07/16 09:14:05;;;;;;;;;;;;;;;;;;5134918;27;19976;-78
2022/07/16 09:16:33;;;;;;;;;;;;;;;;;;5135477;27;19958;-79
2022/07/16 09:19:04;;;;;;;;;;;;;;;;;;5138533;27;20014;-79
2022/07/16 09:21:31;;;;;;;;;;;;;;;;;;5139217;27;19961;-78
2022/07/16 09:23:59;;;;;;;;;;;;;;;;;;5142927;27;19972;-77
2022/07/16 09:26:27;;;;;;;;;;;;;;;;;;5135891;27;19963;-77
2022/07/16 09:28:53;;;;;;;;;;;;;;;;;;5134784;27;19945;-78
2022/07/16 09:31:38;;;;;;;;;;;;;;;;;;5134869;27;19970;-78
2022/07/16 09:34:05;;;;;;;;;;;;;;;;;;5136659;27;19987;-77
2022/07/16 09:36:32;;;;;;;;;;;;;;;;;;5134752;27;19988;-76
2022/07/16 09:38:59;;;;;;;;;;;;;;;;;;5136596;27;19974;-78
2022/07/16 09:41:26;;;;;;;;;;;;;;;;;;5139042;27;19930;-79
2022/07/16 09:43:53;;;;;;;;;;;;;;;;;;5134404;27;19923;-77
2022/07/16 09:46:20;;;;;;;;;;;;;;;;;;5133777;27;19923;-77
2022/07/16 09:48:47;;;;;;;;;;;;;;;;;;5136306;27;19974;-78
2022/07/16 09:51:14;;;;;;;;;;;;;;;;;;5137777;27;19923;-77
2022/07/16 09:53:43;;;;;;;;;;;;;;;;;;5134450;27;20385;-77
2022/07/16 09:56:13;;;;;;;;;;;;;;;;;;5133646;27;19924;-76
2022/07/16 09:58:39;;;;;;;;;;;;;;;;;;5134667;27;19983;-78
2022/07/16 10:01:07;;;;;;;;;;;;;;;;;;5117406;27;19967;-77
2022/07/16 10:03:34;;;;;;;;;;;;;;;;;;5114915;28;19930;-77
2022/07/16 10:06:00;;;;;;;;;;;;;;;;;;5113550;28;19999;-77
2022/07/16 10:08:28;;;;;;;;;;;;;;;;;;5125855;27;19976;-77
2022/07/16 10:10:56;;;;;;;;;;;;;;;;;;5145341;27;19924;-76
2022/07/16 10:13:26;;;;;;;;;;;;;;;;;;5134294;27;19923;-77
2022/07/16 10:15:59;;;;;;;;;;;;;;;;;;5133955;27;19930;-77
2022/07/16 10:18:37;;;;;;;;;;;;;;;;;;5134604;27;19968;-78
2022/07/16 10:21:08;;;;;;;;;;;;;;;;;;5133885;27;20014;-78
2022/07/16 10:23:35;;;;;;;;;;;;;;;;;;5135556;27;19970;-78
2022/07/16 10:26:04;;;;;;;;;;;;;;;;;;5133836;27;19970;-78
2022/07/16 10:28:43;;;;;;;;;;;;;;;;;;5134406;27;19924;-79
2022/07/16 10:31:28;;;;;;;;;;;;;;;;;;5138261;27;19946;-80
2022/07/16 10:34:10;;;;;;;;;;;;;;;;;;5137702;27;19931;-79
2022/07/16 10:36:44;;;;;;;;;;;;;;;;;;5135462;27;19923;-79
2022/07/16 10:39:15;;;;;;;;;;;;;;;;;;5136297;27;19923;-78
2022/07/16 10:41:47;;;;;;;;;;;;;;;;;;5136647;27;19933;-77
2022/07/16 10:44:16;;;;;;;;;;;;;;;;;;5137151;27;19924;-77
2022/07/16 10:46:51;;;;;;;;;;;;;;;;;;5132569;27;19974;-77
2022/07/16 10:49:17;;;;;;;;;;;;;;;;;;5132461;27;19967;-77
2022/07/16 10:52:03;;;;;;;;;;;;;;;;;;5132556;27;20002;-78
2022/07/16 10:54:30;;;;;;;;;;;;;;;;;;5133120;27;20539;-77
2022/07/16 10:56:58;;;;;;;;;;;;;;;;;;5132433;27;20317;-78
2022/07/16 10:59:27;;;;;;;;;;;;;;;;;;5130480;27;19928;-78
2022/07/16 11:01:55;;;;;;;;;;;;;;;;;;5112105;28;19923;-78
2022/07/16 11:04:28;;;;;;;;;;;;;;;;;;5116667;28;19924;-78
2022/07/16 11:06:55;;;;;;;;;;;;;;;;;;5113081;28;20026;-77
2022/07/16 11:09:26;;;;;;;;;;;;;;;;;;5111159;28;19966;-77
2022/07/16 11:11:52;;;;;;;;;;;;;;;;;;5112579;28;20014;-78
2022/07/16 11:14:19;;;;;;;;;;;;;;;;;;5116071;28;19946;-77
2022/07/16 11:16:51;;;;;;;;;;;;;;;;;;5112492;28;20449;-77
2022/07/16 11:19:18;;;;;;;;;;;;;;;;;;5111502;28;19967;-78
2022/07/16 11:21:54;;;;;;;;;;;;;;;;;;5112376;28;20358;-78
2022/07/16 11:24:21;;;;;;;;;;;;;;;;;;5111770;28;19992;-78
2022/07/16 11:26:48;;;;;;;;;;;;;;;;;;5120151;27;19951;-77
2022/07/16 11:29:15;;;;;;;;;;;;;;;;;;5108804;27;19924;-78
2022/07/16 11:31:42;;;;;;;;;;;;;;;;;;5112637;28;19924;-78
2022/07/16 11:34:10;;;;;;;;;;;;;;;;;;5114016;28;20355;-77
2022/07/16 11:36:39;;;;;;;;;;;;;;;;;;5129547;27;19975;-76
2022/07/16 11:39:06;;;;;;;;;;;;;;;;;;5136145;27;19963;-77
2022/07/16 11:41:33;;;;;;;;;;;;;;;;;;5138395;27;20380;-77
2022/07/16 11:44:00;;;;;;;;;;;;;;;;;;5137157;27;19924;-76
2022/07/16 11:46:28;;;;;;;;;;;;;;;;;;5135648;27;19923;-77
2022/07/16 11:48:55;;;;;;;;;;;;;;;;;;5137142;28;19924;-77
2022/07/16 11:51:23;;;;;;;;;;;;;;;;;;5138457;28;19931;-78
2022/07/16 11:53:51;;;;;;;;;;;;;;;;;;5136170;28;20506;-77
2022/07/16 11:56:30;;;;;;;;;;;;;;;;;;5132780;28;19923;-77
2022/07/16 11:58:57;;;;;;;;;;;;;;;;;;5134825;28;20413;-76
2022/07/16 12:01:24;;;;;;;;;;;;;;;;;;5137069;28;20005;-78
2022/07/16 12:03:53;;;;;;;;;;;;;;;;;;5136949;28;19930;-76
2022/07/16 12:06:19;;;;;;;;;;;;;;;;;;5136812;28;19930;-77
2022/07/16 12:08:52;;;;;;;;;;;;;;;;;;5137557;28;19923;-77
2022/07/16 12:11:18;;;;;;;;;;;;;;;;;;5136525;28;19963;-77
2022/07/16 12:13:51;;;;;;;;;;;;;;;;;;5137683;28;19959;-77
2022/07/16 12:16:19;;;;;;;;;;;;;;;;;;5133603;28;19988;-77
2022/07/16 12:18:58;;;;;;;;;;;;;;;;;;5131136;28;20015;-77
2022/07/16 12:21:25;;;;;;;;;;;;;;;;;;5130945;28;19971;-76
2022/07/16 12:23:53;;;;;;;;;;;;;;;;;;5134179;28;19934;-77
2022/07/16 12:26:27;;;;;;;;;;;;;;;;;;5133184;28;20398;-77
2022/07/16 12:28:54;;;;;;;;;;;;;;;;;;5134557;28;19974;-77
2022/07/16 12:31:20;;;;;;;;;;;;;;;;;;5136692;28;19931;-78
2022/07/16 12:33:51;;;;;;;;;;;;;;;;;;5135579;28;19962;-75
2022/07/16 12:36:18;;;;;;;;;;;;;;;;;;5135636;28;20548;-77
2022/07/16 12:38:49;;;;;;;;;;;;;;;;;;5134301;28;19923;-79
2022/07/16 12:41:17;;;;;;;;;;;;;;;;;;5135659;28;20234;-77
2022/07/16 12:43:47;;;;;;;;;;;;;;;;;;5114980;28;19924;-77
2022/07/16 12:46:14;;;;;;;;;;;;;;;;;;5114292;28;19924;-77
2022/07/16 12:48:42;;;;;;;;;;;;;;;;;;5114505;28;19962;-76
2022/07/16 12:51:09;;;;;;;;;;;;;;;;;;5111424;28;19923;-77
2022/07/16 12:53:35;;;;;;;;;;;;;;;;;;5110063;28;20382;-77
2022/07/16 12:58:50;;;;;;;;;;;;;;;;;;5114363;28;19930;-77
2022/07/16 13:01:18;;;;;;;;;;;;;;;;;;5168875;22;19992;-61
2022/07/16 13:03:44;;;;;;;;;;;;;;;;;;5135135;27;19923;-62
2022/07/16 13:06:11;;;;;;;;;;;;;;;;;;5134466;27;20332;-62
2022/07/16 13:08:38;;;;;;;;;;;;;;;;;;5134594;27;20414;-62
2022/07/16 13:11:06;;;;;;;;;;;;;;;;;;5134583;27;19924;-62
2022/07/16 13:13:33;;;;;;;;;;;;;;;;;;5134104;27;19923;-63
2022/07/16 13:16:01;;;;;;;;;;;;;;;;;;5133841;27;19931;-62
2022/07/16 13:18:28;;;;;;;;;;;;;;;;;;5133728;27;19924;-62
2022/07/16 13:20:54;;;;;;;;;;;;;;;;;;5134132;27;20387;-63
2022/07/16 13:23:21;;;;;;;;;;;;;;;;;;5134343;27;19924;-62
2022/07/16 13:25:48;;;;;;;;;;;;;;;;;;5134398;27;20372;-62
2022/07/16 13:28:15;;;;;;;;;;;;;;;;;;5133792;27;19923;-62
2022/07/16 13:30:42;;;;;;;;;;;;;;;;;;5134552;27;19930;-63
2022/07/16 13:33:10;;;;;;;;;;;;;;;;;;5133673;27;20014;-63
2022/07/16 13:35:37;;;;;;;;;;;;;;;;;;5133660;27;19935;-62
2022/07/16 13:38:04;;;;;;;;;;;;;;;;;;5133635;27;19928;-63
2022/07/16 13:40:30;;;;;;;;;;;;;;;;;;5133611;27;19939;-62
2022/07/16 13:42:57;;;;;;;;;;;;;;;;;;5133762;27;20018;-61
2022/07/16 13:45:23;;;;;;;;;;;;;;;;;;5133471;27;19930;-62
2022/07/16 13:47:50;;;;;;;;;;;;;;;;;;5133256;27;20431;-62
2022/07/16 13:50:18;;;;;;;;;;;;;;;;;;5133627;27;20345;-63
2022/07/16 13:52:45;;;;;;;;;;;;;;;;;;5133469;27;19924;-62
2022/07/16 13:55:11;;;;;;;;;;;;;;;;;;5133310;27;19968;-63
2022/07/16 14:00:23;;;;;;;;;;;;;;;;;;5123048;27;19961;-62
2022/07/16 14:02:49;;;;;;;;;;;;;;;;;;5112845;28;19924;-62
2022/07/16 14:05:16;;;;;;;;;;;;;;;;;;5112803;28;20415;-62
2022/07/16 14:07:44;;;;;;;;;;;;;;;;;;5112354;28;20022;-63
2022/07/16 14:10:12;;;;;;;;;;;;;;;;;;5111999;28;19931;-62
2022/07/16 14:12:39;;;;;;;;;;;;;;;;;;5112577;28;19924;-63
2022/07/16 14:15:06;;;;;;;;;;;;;;;;;;5112803;28;20350;-63
2022/07/16 14:17:33;;;;;;;;;;;;;;;;;;5112355;28;20372;-63
2022/07/16 14:20:00;;;;;;;;;;;;;;;;;;5112722;28;20430;-63
2022/07/16 14:22:26;;;;;;;;;;;;;;;;;;5112421;28;20288;-63
2022/07/16 14:24:54;;;;;;;;;;;;;;;;;;5112194;28;20400;-62
2022/07/16 14:27:21;;;;;;;;;;;;;;;;;;5111946;28;20344;-62
2022/07/16 14:29:47;;;;;;;;;;;;;;;;;;5112099;28;19924;-63
2022/07/16 14:32:14;;;;;;;;;;;;;;;;;;5112361;28;20380;-64
2022/07/16 14:34:41;;;;;;;;;;;;;;;;;;5112044;28;20388;-63
2022/07/16 14:37:07;;;;;;;;;;;;;;;;;;5111884;28;20010;-62
2022/07/16 14:39:34;;;;;;;;;;;;;;;;;;5112131;28;19927;-63
2022/07/16 14:42:02;;;;;;;;;;;;;;;;;;5111767;28;19928;-63
2022/07/16 14:44:28;;;;;;;;;;;;;;;;;;5112169;28;19924;-62
2022/07/16 14:46:55;;;;;;;;;;;;;;;;;;5111829;28;19924;-62
2022/07/16 14:49:21;;;;;;;;;;;;;;;;;;5112065;28;19928;-63
2022/07/16 14:51:48;;;;;;;;;;;;;;;;;;5111787;28;19931;-64
2022/07/16 14:54:15;;;;;;;;;;;;;;;;;;5111535;28;19963;-63
2022/07/16 14:56:41;;;;;;;;;;;;;;;;;;5111864;28;19931;-63
2022/07/16 14:59:09;;;;;;;;;;;;;;;;;;5111961;28;19951;-63
2022/07/16 15:01:36;;;;;;;;;;;;;;;;;;5111602;28;20408;-63
2022/07/16 15:04:03;;;;;;;;;;;;;;;;;;5111407;28;20361;-63
2022/07/16 15:06:30;;;;;;;;;;;;;;;;;;5111594;28;20422;-63
2022/07/16 15:08:57;;;;;;;;;;;;;;;;;;5111310;28;20388;-63
2022/07/16 15:11:23;;;;;;;;;;;;;;;;;;5111372;28;19924;-62
2022/07/16 15:13:50;;;;;;;;;;;;;;;;;;5111781;28;19923;-63
2022/07/16 15:16:18;;;;;;;;;;;;;;;;;;5111129;28;19969;-62
2022/07/16 15:18:45;;;;;;;;;;;;;;;;;;5111227;28;19975;-64
2022/07/16 15:21:11;;;;;;;;;;;;;;;;;;5111493;28;19931;-62
2022/07/16 15:23:38;;;;;;;;;;;;;;;;;;5111181;28;19934;-62
2022/07/16 15:26:05;;;;;;;;;;;;;;;;;;5111642;28;20295;-62
2022/07/16 15:28:31;;;;;;;;;;;;;;;;;;5111333;28;20010;-62
2022/07/16 15:30:58;;;;;;;;;;;;;;;;;;5111313;28;20000;-62
2022/07/16 15:33:38;;;;;;;;;;;;;;;;;;5111287;28;19993;-62
2022/07/16 15:36:04;;;;;;;;;;;;;;;;;;5111179;28;19927;-62
2022/07/16 15:38:31;;;;;;;;;;;;;;;;;;5111087;28;20011;-60
2022/07/16 15:40:59;;;;;;;;;;;;;;;;;;5111069;28;20040;-62
2022/07/16 15:43:26;;;;;;;;;;;;;;;;;;5111591;28;19924;-63
2022/07/16 15:45:52;;;;;;;;;;;;;;;;;;5111178;28;19935;-63
2022/07/16 15:48:19;;;;;;;;;;;;;;;;;;5111320;28;19924;-61
2022/07/16 15:50:47;;;;;;;;;;;;;;;;;;5111144;28;19924;-62
2022/07/16 15:53:13;;;;;;;;;;;;;;;;;;5111098;28;19923;-62
2022/07/16 15:55:40;;;;;;;;;;;;;;;;;;5110835;28;20018;-63
2022/07/16 15:58:07;;;;;;;;;;;;;;;;;;5110872;28;20019;-60
2022/07/16 16:00:33;;;;;;;;;;;;;;;;;;5122313;28;19923;-62
2022/07/16 16:03:01;;;;;;;;;;;;;;;;;;5131244;28;19967;-63
2022/07/16 16:05:28;;;;;;;;;;;;;;;;;;5131711;28;20018;-62
2022/07/16 16:07:56;;;;;;;;;;;;;;;;;;5131403;28;19923;-62
2022/07/16 16:10:23;;;;;;;;;;;;;;;;;;5131382;28;19924;-62
2022/07/16 16:12:49;;;;;;;;;;;;;;;;;;5130975;28;20008;-62
2022/07/16 16:15:16;;;;;;;;;;;;;;;;;;5131004;28;19923;-61
2022/07/16 16:17:43;;;;;;;;;;;;;;;;;;5130903;28;20361;-62
2022/07/16 16:20:10;;;;;;;;;;;;;;;;;;5131097;28;19923;-61
2022/07/16 16:22:36;;;;;;;;;;;;;;;;;;5131360;28;19934;-62
2022/07/16 16:25:05;;;;;;;;;;;;;;;;;;5123910;28;19951;-62
2022/07/16 16:27:31;;;;;;;;;;;;;;;;;;5110431;28;20273;-62
2022/07/16 16:29:58;;;;;;;;;;;;;;;;;;5127369;28;20338;-61
2022/07/16 16:32:25;;;;;;;;;;;;;;;;;;5112141;28;19924;-62
2022/07/16 16:34:52;;;;;;;;;;;;;;;;;;5114750;28;20386;-62
2022/07/16 16:37:19;;;;;;;;;;;;;;;;;;5114464;28;20354;-62
2022/07/16 16:39:46;;;;;;;;;;;;;;;;;;5114245;28;20450;-62
2022/07/16 16:42:14;;;;;;;;;;;;;;;;;;5114213;28;19931;-61
2022/07/16 16:44:41;;;;;;;;;;;;;;;;;;5114105;28;19998;-59
2022/07/16 16:47:07;;;;;;;;;;;;;;;;;;5114140;28;19924;-62
2022/07/16 16:49:34;;;;;;;;;;;;;;;;;;5114292;28;19924;-62
2022/07/16 16:52:01;;;;;;;;;;;;;;;;;;5114180;28;19924;-61
2022/07/16 16:54:28;;;;;;;;;;;;;;;;;;5114169;28;19924;-61
2022/07/16 16:56:54;;;;;;;;;;;;;;;;;;5114197;28;20415;-62
2022/07/16 16:59:23;;;;;;;;;;;;;;;;;;5113896;28;19931;-61